AirNav   Pilot Hours Calculator
 
 876 users online  

WI47 Timberline Airport
Scandinavia, Wisconsin, USA

GOING TO SCANDINAVIA?


FAA INFORMATION EFFECTIVE 26 JANUARY 2023

Location

FAA Identifier: WI47
Lat/Long: 44-25-59.9200N 089-09-00.4040W
44-25.998667N 089-09.006733W
44.4333111,-89.1501122
(estimated)
Elevation: 890 ft. / 271 m (estimated)
Variation: 01W (1985)
From city: 2 miles S of SCANDINAVIA, WI
Time zone: UTC -6 (UTC -5 during Daylight Saving Time)
Zip code: 54977

Airport Operations

Airport use: Private use. Permission required prior to landing
Activation date: 07/1964
Control tower: no
ARTCC: MINNEAPOLIS CENTER
FSS: GREEN BAY FLIGHT SERVICE STATION
Attendance: UNATNDD
Wind indicator: yes
Segmented circle: no

Airport Communications

WX AWOS-3 at PCZ (8 nm SE): 118.625 (920-867-2407)
WX AWOS-3 at STE (18 nm W): 119.275 (715-344-5960)

Nearby radio navigation aids

VOR radial/distance  VOR name  Freq  Var
OSHr314/36.9OSHKOSH VORTAC116.7502E

Airport Services

Airframe service: NONE
Powerplant service: NONE

Runway Information

Runway E/W

Dimensions: 2200 x 100 ft. / 671 x 30 m
Surface: turf
RUNWAY E  RUNWAY W
Traffic pattern: leftleft
Obstructions: none30 ft. pline, 150 ft. from runway

Airport Ownership and Management from official FAA records

Ownership: Privately-owned
Owner: CAL AND LAURIE KRISHER
N5299 WINDY HILL ROAD
SCANDINAVIA, WI 54977
Phone 715-467-2721
Manager: CAL KRISHER
N5299 WINDY HILL ROAD
SCANDINAVIA, WI 54977
Phone 715-572-9858

Airport Operational Statistics

Aircraft based on the field: 1
Single engine airplanes: 1
    

Additional Remarks

FOR CD CTC MINNEAPOLIS ARTCC AT 651-463-5588.

Instrument Procedures

There are no published instrument procedures at WI47.

Some nearby airports with instrument procedures:

KPCZ - Waupaca Municipal Airport (8 nm SE)
KSTE - Stevens Point Municipal Airport (18 nm NW)
KCLI - Clintonville Municipal Airport (21 nm NE)
Y50 - Wautoma Municipal Airport (24 nm S)
KATW - Appleton International Airport (29 nm E)
 
Loc | Ops | Rwys | IFR | FBO | Links
Com | Nav | Svcs | Stats | Notes
Area around WI47 (Timberline Airport)
 
Road maps at: MapQuest Bing Google
 
Aerial photo
No photo
 
Sectional chart

 
Airport distance calculator
Flying to Timberline Airport? Find the distance to fly.

From to WI47

Sunrise and sunset
Times for 06-Feb-2023
 Local
(UTC-6)
 Zulu
(UTC)
Morning civil twilight06:4012:40
Sunrise07:1013:10
Sunset17:1123:11
Evening civil twilight17:4223:42

Current date and time
Zulu (UTC)  07-Feb-2023 04:51:35
Local (UTC-6)  06-Feb-2023 22:51:35
 
METAR
KPCZ 
8nm SE 
070435Z AUTO 16011G16KT 10SM -RA SCT042 BKN050 OVC080 04/M01 A2964 RMK AO2 T00411010
KSTE 
17nm W 
070435Z AUTO 00000KT 10SM OVC039 02/M01 A2965 RMK AO2 LTG DSNT NE P0002 T00201013
TAF
KATW 
29nm E 
070341Z 0704/0724 15013G22KT P6SM SCT030 OVC060 WS020/21055KT FM070500 19014G21KT 4SM -SHRADZ BR OVC018 FM071200 24014G23KT P6SM OVC015 FM071800 27012G22KT P6SM SCT018 BKN030 FM072200 27010KT P6SM SCT035
KCWA 
30nm NW 
070352Z 0704/0724 13011G20KT 3SM -FZRASN BR SCT013 OVC030 WS020/17050KT FM070500 18012G21KT 3SM -SHSN BR OVC009 WS020/20045KT FM070900 26012G20KT P6SM OVC006 FM071500 28014G23KT P6SM BKN013 FM071800 27012G22KT P6SM SCT018 BKN030 FM072200 27010KT P6SM SCT035
KAUW 
36nm NW 
070349Z 0704/0724 13013G21KT 4SM -FZRASN BR SCT020 OVC028 WS020/17050KT FM070600 18012G21KT 3SM -SHSN BR OVC012 WS020/20045KT FM070900 26012G20KT P6SM OVC009 FM071500 28014G23KT P6SM BKN013 FM071800 27012G22KT P6SM SCT018 BKN030 FM072200 27010KT P6SM SCT035
NOTAMs
Click for the latest NOTAMs
NOTAMs are issued by the DoD/FAA and will open in a separate window not controlled by AirNav.

 

 
 

Would you like to see your business listed on this page?

 If your business provides an interesting product or service to pilots, flight crews, aircraft, or users of the Timberline Airport, you should consider listing it here.  To start the listing process, click on the button below
 
Add a business
 

Other Pages about Timberline Airport

Update a link
 
Copyright © AirNav, LLC. All rights reserved. Privacy Policy  Contact